createdAt,value
2022-12-14T00:01:42.178Z,121.10
2022-12-14T00:04:15.683Z,121.85
2022-12-14T00:06:42.614Z,118.68
2022-12-14T00:09:09.627Z,113.95
2022-12-14T00:11:36.408Z,113.72
2022-12-14T00:14:05.080Z,129.35
2022-12-14T00:16:34.610Z,109.28
2022-12-14T00:19:02.723Z,113.50
2022-12-14T00:21:29.586Z,113.68
2022-12-14T00:23:59.390Z,115.10
2022-12-14T00:26:30.294Z,113.40
2022-12-14T00:28:57.652Z,118.38
2022-12-14T00:31:26.005Z,130.05
2022-12-14T00:33:53.247Z,116.15
2022-12-14T00:36:20.602Z,125.55
2022-12-14T00:38:47.908Z,119.05
2022-12-14T00:41:14.825Z,121.18
2022-12-14T00:43:41.861Z,113.13
2022-12-14T00:46:09.097Z,114.90
2022-12-14T00:48:36.319Z,111.03
2022-12-14T00:51:03.906Z,116.68
2022-12-14T00:53:31.304Z,106.53
2022-12-14T00:56:05.423Z,107.40
2022-12-14T00:58:32.363Z,123.07
2022-12-14T01:01:02.672Z,125.47
2022-12-14T01:03:30.454Z,117.35
2022-12-14T01:05:57.645Z,123.90
2022-12-14T01:08:25.166Z,129.05
2022-12-14T01:10:52.534Z,119.38
2022-12-14T01:13:19.806Z,124.60
2022-12-14T01:15:47.153Z,108.45
2022-12-14T01:18:14.453Z,120.03
2022-12-14T01:20:41.285Z,116.72
2022-12-14T01:23:08.076Z,126.00
2022-12-14T01:25:35.219Z,120.55
2022-12-14T01:28:02.118Z,110.30
2022-12-14T01:30:29.058Z,119.07
2022-12-14T01:32:55.962Z,124.30
2022-12-14T01:35:22.823Z,117.85
2022-12-14T01:37:49.665Z,120.32
2022-12-14T01:40:17.082Z,119.38
2022-12-14T01:42:43.904Z,115.95
2022-12-14T01:45:22.673Z,122.18
2022-12-14T01:47:58.307Z,118.28
2022-12-14T01:50:33.118Z,100.95
2022-12-14T01:53:07.217Z,119.95
2022-12-14T01:55:38.760Z,108.40
2022-12-14T01:58:20.672Z,111.75
2022-12-14T02:00:49.642Z,107.80
2022-12-14T02:03:28.885Z,121.47
2022-12-14T02:06:29.548Z,122.70
2022-12-14T02:08:57.807Z,109.47
2022-12-14T02:11:35.347Z,109.22
2022-12-14T02:14:02.126Z,121.55
2022-12-14T02:16:29.326Z,122.35
2022-12-14T02:18:56.137Z,119.13
2022-12-14T02:21:36.902Z,114.90
2022-12-14T02:24:46.947Z,121.82
2022-12-14T02:27:56.573Z,122.63
2022-12-14T02:30:26.612Z,128.02
2022-12-14T02:33:05.927Z,115.10
2022-12-14T02:35:40.760Z,110.43
2022-12-14T02:38:35.322Z,111.43
2022-12-14T02:41:39.406Z,89.55
2022-12-14T02:44:15.687Z,117.72
2022-12-14T02:47:09.633Z,111.18
2022-12-14T02:50:34.940Z,112.47
2022-12-14T02:53:25.467Z,109.70
2022-12-14T02:55:54.530Z,103.82
2022-12-14T02:58:28.726Z,103.95
2022-12-14T03:00:56.807Z,107.80
2022-12-14T03:03:23.954Z,111.70
2022-12-14T03:06:04.744Z,110.93
2022-12-14T03:08:35.756Z,105.40
2022-12-14T03:11:06.021Z,110.32
2022-12-14T03:13:50.005Z,116.10
2022-12-14T03:16:23.168Z,97.73
2022-12-14T03:19:22.753Z,109.75
2022-12-14T03:21:56.535Z,110.82
2022-12-14T03:24:34.875Z,112.28
2022-12-14T03:27:12.740Z,98.53
2022-12-14T03:29:48.260Z,105.70
2022-12-14T03:32:23.500Z,95.78
2022-12-14T03:35:19.501Z,120.90
2022-12-14T03:37:56.240Z,102.40
2022-12-14T03:40:53.514Z,106.30
2022-12-14T03:43:38.513Z,90.30
2022-12-14T03:46:23.105Z,99.70
2022-12-14T03:48:56.642Z,100.00
2022-12-14T03:51:52.429Z,96.87
2022-12-14T03:54:37.527Z,104.28
2022-12-14T03:57:24.910Z,96.22
2022-12-14T04:00:10.306Z,108.45
2022-12-14T04:03:14.513Z,102.75
2022-12-14T04:06:07.736Z,123.75
2022-12-14T04:08:43.561Z,126.07
2022-12-14T04:11:32.426Z,119.75
2022-12-14T04:14:43.934Z,100.97
2022-12-14T04:17:38.720Z,106.72
2022-12-14T04:20:17.147Z,123.30
2022-12-14T04:22:57.952Z,116.10
2022-12-14T04:25:50.997Z,103.07
2022-12-14T04:28:55.211Z,103.15
2022-12-14T04:31:28.438Z,104.10
2022-12-14T04:33:59.550Z,109.88
2022-12-14T04:36:52.192Z,101.00
2022-12-14T04:39:47.387Z,102.80
2022-12-14T04:44:50.046Z,110.55
2022-12-14T04:47:18.419Z,106.43
2022-12-14T04:50:01.092Z,129.98
2022-12-14T04:52:36.622Z,141.80
2022-12-14T04:55:19.788Z,146.90
2022-12-14T04:58:10.265Z,123.70
2022-12-14T05:00:56.650Z,157.77
2022-12-14T05:03:33.463Z,194.23
2022-12-14T05:06:22.708Z,304.80
2022-12-14T05:09:39.386Z,203.13
2022-12-14T05:12:21.705Z,143.98
2022-12-14T05:15:06.283Z,189.95
2022-12-14T05:17:43.031Z,178.45
2022-12-14T05:20:20.688Z,179.68
2022-12-14T05:22:47.739Z,176.48
2022-12-14T05:25:14.569Z,160.70
2022-12-14T05:27:41.611Z,157.60
2022-12-14T05:30:10.148Z,127.18
2022-12-14T05:32:36.907Z,154.75
2022-12-14T05:35:05.261Z,145.90
2022-12-14T05:37:32.390Z,220.43
2022-12-14T05:39:59.182Z,176.98
2022-12-14T05:42:26.310Z,175.85
2022-12-14T05:44:53.076Z,322.73
2022-12-14T05:47:19.859Z,160.77
2022-12-14T05:49:46.847Z,160.90
2022-12-14T05:52:16.951Z,179.93
2022-12-14T05:54:43.926Z,432.33
2022-12-14T05:57:10.819Z,206.18
2022-12-14T05:59:37.681Z,213.75
2022-12-14T06:02:05.664Z,158.90
2022-12-14T06:04:33.350Z,148.23
2022-12-14T06:07:00.205Z,193.85
2022-12-14T06:09:27.144Z,163.52
2022-12-14T06:11:56.969Z,162.10
2022-12-14T06:14:24.571Z,163.68
2022-12-14T06:16:51.567Z,143.95
2022-12-14T06:19:19.142Z,161.00
2022-12-14T06:21:46.208Z,131.48
2022-12-14T06:24:13.988Z,189.50
2022-12-14T06:26:41.904Z,165.85
2022-12-14T06:29:16.106Z,155.13
2022-12-14T06:31:42.926Z,141.25
2022-12-14T06:34:11.429Z,188.80
2022-12-14T06:36:42.200Z,188.23
2022-12-14T06:39:14.199Z,188.13
2022-12-14T06:41:41.541Z,177.85
2022-12-14T06:44:12.624Z,173.95
2022-12-14T06:46:40.119Z,126.03
2022-12-14T06:49:07.919Z,211.77
2022-12-14T06:51:42.311Z,146.65
2022-12-14T06:54:12.062Z,142.25
2022-12-14T06:56:39.958Z,141.95
2022-12-14T06:59:08.791Z,150.90
2022-12-14T07:01:37.126Z,135.98
2022-12-14T07:04:05.178Z,141.80
2022-12-14T07:06:36.614Z,125.43
2022-12-14T07:09:06.398Z,137.77
2022-12-14T07:11:33.589Z,137.85
2022-12-14T07:14:01.357Z,115.40
2022-12-14T07:16:29.938Z,146.27
2022-12-14T07:18:56.830Z,179.70
2022-12-14T07:21:24.397Z,194.85
2022-12-14T07:23:54.712Z,178.52
2022-12-14T07:26:25.562Z,115.90
2022-12-14T07:28:53.075Z,275.52
2022-12-14T07:31:24.601Z,119.32
2022-12-14T07:33:57.059Z,117.10
2022-12-14T07:36:26.704Z,128.30
2022-12-14T07:38:55.945Z,114.05
2022-12-14T07:41:31.180Z,150.85
2022-12-14T07:44:01.482Z,142.85
2022-12-14T07:46:30.504Z,177.55
2022-12-14T07:48:59.044Z,214.13
2022-12-14T07:51:36.608Z,151.70
2022-12-14T07:54:06.429Z,112.43
2022-12-14T07:56:39.831Z,179.77
2022-12-14T07:59:09.936Z,120.78
2022-12-14T08:01:38.167Z,155.32
2022-12-14T08:04:11.276Z,277.10
2022-12-14T08:06:39.983Z,157.52
2022-12-14T08:09:10.065Z,147.80
2022-12-14T08:11:37.852Z,249.80
2022-12-14T08:14:14.519Z,172.50
2022-12-14T08:16:41.382Z,144.63
2022-12-14T08:19:08.547Z,172.02
2022-12-14T08:21:35.486Z,141.80
2022-12-14T08:24:02.366Z,130.85
2022-12-14T08:26:35.297Z,138.07
2022-12-14T08:29:03.812Z,250.95
2022-12-14T08:31:31.550Z,128.18
2022-12-14T08:33:59.788Z,171.50
2022-12-14T08:36:30.577Z,138.35
2022-12-14T08:39:00.520Z,142.45
2022-12-14T08:41:29.219Z,365.83
2022-12-14T08:43:58.933Z,136.52
2022-12-14T08:46:28.703Z,202.05
2022-12-14T08:48:56.522Z,110.53
2022-12-14T08:51:25.554Z,136.93
2022-12-14T08:53:53.485Z,139.82
2022-12-14T08:56:24.130Z,127.75
2022-12-14T08:58:52.217Z,136.73
2022-12-14T09:01:30.020Z,183.73
2022-12-14T09:04:06.722Z,176.25
2022-12-14T09:06:37.159Z,133.10
2022-12-14T09:09:08.179Z,120.22
2022-12-14T09:11:37.944Z,139.77
2022-12-14T09:14:05.030Z,129.27
2022-12-14T09:16:31.878Z,110.88
2022-12-14T09:18:59.115Z,128.05
2022-12-14T09:21:26.163Z,213.15
2022-12-14T09:23:58.938Z,170.68
2022-12-14T09:26:26.313Z,130.98
2022-12-14T09:28:55.814Z,142.48
2022-12-14T09:31:25.693Z,111.22
2022-12-14T09:33:53.345Z,160.77
2022-12-14T09:36:24.602Z,119.28
2022-12-14T09:38:55.528Z,107.10
2022-12-14T09:41:35.640Z,120.55
2022-12-14T09:44:25.105Z,170.73
2022-12-14T09:46:54.947Z,159.52
2022-12-14T09:49:30.538Z,126.50
2022-12-14T09:52:07.338Z,133.57
2022-12-14T09:54:38.995Z,145.30
2022-12-14T09:57:25.037Z,119.53
2022-12-14T09:59:56.627Z,129.75
2022-12-14T10:03:06.984Z,129.13
2022-12-14T10:05:36.823Z,115.60
2022-12-14T10:08:19.023Z,116.20
2022-12-14T10:11:35.229Z,122.68
2022-12-14T10:14:18.122Z,138.32
2022-12-14T10:17:20.263Z,123.50
2022-12-14T10:19:57.783Z,122.55
2022-12-14T10:22:47.425Z,119.57
2022-12-14T10:25:21.011Z,116.22
2022-12-14T10:28:10.908Z,82.90
2022-12-14T10:30:38.798Z,153.13
2022-12-14T10:33:20.636Z,112.07
2022-12-14T10:35:54.275Z,116.32
2022-12-14T10:38:24.065Z,97.63
2022-12-14T10:40:58.993Z,114.20
2022-12-14T10:44:07.534Z,120.70
2022-12-14T10:47:13.489Z,120.93
2022-12-14T10:49:58.065Z,117.63
2022-12-14T10:52:31.573Z,114.93
2022-12-14T10:55:11.237Z,127.70
2022-12-14T10:57:37.995Z,133.32
2022-12-14T11:00:18.512Z,122.35
2022-12-14T11:02:54.621Z,125.07
2022-12-14T11:05:41.616Z,112.63
2022-12-14T11:08:09.317Z,117.80
2022-12-14T11:10:39.941Z,115.85
2022-12-14T11:13:17.898Z,105.70
2022-12-14T11:15:53.699Z,111.28
2022-12-14T11:18:20.678Z,105.70
2022-12-14T11:20:53.899Z,117.07
2022-12-14T11:23:41.129Z,118.13
2022-12-14T11:26:25.814Z,126.07
2022-12-14T11:28:56.035Z,123.70
2022-12-14T11:31:43.864Z,118.18
2022-12-14T11:34:39.425Z,112.10
2022-12-14T11:37:21.635Z,109.05
2022-12-14T11:39:56.734Z,109.28
2022-12-14T11:42:24.738Z,106.10
2022-12-14T11:44:52.514Z,108.10
2022-12-14T11:47:26.495Z,107.28
2022-12-14T11:49:55.110Z,107.00
2022-12-14T11:52:43.102Z,103.75
2022-12-14T11:55:19.225Z,105.60
2022-12-14T11:57:55.763Z,101.95
2022-12-14T12:00:29.471Z,105.85
2022-12-14T12:03:02.327Z,104.00
2022-12-14T12:05:33.907Z,97.22
2022-12-14T12:08:02.986Z,107.00
2022-12-14T12:10:41.745Z,104.32
2022-12-14T12:13:35.635Z,109.07
2022-12-14T12:16:13.713Z,110.80
2022-12-14T12:18:55.757Z,113.03
2022-12-14T12:21:32.044Z,117.05
2022-12-14T12:24:10.786Z,106.22
2022-12-14T12:26:42.879Z,114.80
2022-12-14T12:29:19.876Z,116.30
2022-12-14T12:32:24.956Z,125.32
2022-12-14T12:35:04.102Z,110.53
2022-12-14T12:37:41.681Z,101.45
2022-12-14T12:40:38.139Z,107.68
2022-12-14T12:43:38.324Z,100.35
2022-12-14T12:47:14.970Z,107.90
2022-12-14T12:49:33.739Z,120.00
2022-12-14T12:52:05.046Z,112.75
2022-12-14T12:54:38.100Z,117.65
2022-12-14T12:57:09.018Z,115.15
2022-12-14T12:59:45.795Z,131.48
2022-12-14T13:02:36.359Z,129.73
2022-12-14T13:05:44.338Z,123.53
2022-12-14T13:08:07.160Z,123.57
2022-12-14T13:11:24.046Z,104.53
2022-12-14T13:13:35.614Z,115.25
2022-12-14T13:16:14.669Z,108.63
2022-12-14T13:19:08.935Z,104.68
2022-12-14T13:21:50.038Z,98.53
2022-12-14T13:24:20.295Z,83.68
2022-12-14T13:27:18.210Z,71.95
2022-12-14T13:30:23.328Z,59.42
2022-12-14T13:33:01.851Z,58.40
2022-12-14T13:36:20.931Z,52.75
2022-12-14T13:39:25.005Z,50.95
2022-12-14T13:42:08.371Z,54.92
2022-12-14T13:45:06.015Z,56.80
2022-12-14T13:47:48.792Z,53.08
2022-12-14T13:50:36.530Z,47.47
2022-12-14T13:53:11.499Z,48.50
2022-12-14T13:55:47.818Z,51.63
2022-12-14T13:58:18.986Z,40.45
2022-12-14T14:00:45.831Z,48.15
2022-12-14T14:03:36.291Z,40.95
2022-12-14T14:06:12.202Z,40.35
2022-12-14T14:08:44.240Z,44.90
2022-12-14T14:11:39.227Z,47.25
2022-12-14T14:14:22.782Z,35.78
2022-12-14T14:16:58.179Z,46.42
2022-12-14T14:19:28.209Z,40.50
2022-12-14T14:22:29.761Z,42.55
2022-12-14T14:25:10.102Z,42.08
2022-12-14T14:27:42.294Z,39.75
2022-12-14T14:30:56.804Z,42.88
2022-12-14T14:33:47.348Z,37.20
2022-12-14T14:36:30.654Z,44.80
2022-12-14T14:39:01.834Z,47.63
2022-12-14T14:41:38.632Z,42.78
2022-12-14T14:44:19.612Z,45.15
2022-12-14T14:46:49.673Z,52.92
2022-12-14T14:49:32.199Z,46.20
2022-12-14T14:52:37.490Z,38.88
2022-12-14T14:55:51.856Z,45.55
2022-12-14T14:58:42.472Z,47.17
2022-12-14T15:01:20.656Z,40.92
2022-12-14T15:04:05.047Z,50.47
2022-12-14T15:06:40.310Z,37.72
2022-12-14T15:09:10.138Z,46.83
2022-12-14T15:11:51.459Z,49.42
2022-12-14T15:14:48.760Z,51.78
2022-12-14T15:17:23.836Z,48.60
2022-12-14T15:20:02.854Z,53.45
2022-12-14T15:22:43.171Z,50.50
2022-12-14T15:25:33.647Z,48.70
2022-12-14T15:28:10.230Z,50.38
2022-12-14T15:30:37.275Z,47.30
2022-12-14T15:33:09.501Z,48.65
2022-12-14T15:35:40.998Z,46.83
2022-12-14T15:38:31.169Z,52.53
2022-12-14T15:41:02.351Z,52.67
2022-12-14T15:43:29.682Z,49.83
2022-12-14T15:46:04.335Z,55.60
2022-12-14T15:51:14.247Z,45.50
2022-12-14T15:53:50.580Z,45.78
2022-12-14T15:56:38.000Z,45.65
2022-12-14T15:59:22.981Z,52.25
2022-12-14T16:04:32.594Z,41.05
2022-12-14T16:07:22.463Z,41.97
2022-12-14T16:09:55.327Z,51.20
2022-12-14T16:12:34.517Z,52.35
2022-12-14T16:15:06.142Z,45.85
2022-12-14T16:17:36.350Z,43.40
2022-12-14T16:20:29.752Z,52.90
2022-12-14T16:23:15.709Z,49.30
2022-12-14T16:25:58.856Z,52.55
2022-12-14T16:28:37.288Z,57.95
2022-12-14T16:31:13.294Z,62.95
2022-12-14T16:33:43.056Z,54.05
2022-12-14T16:36:24.493Z,55.90
2022-12-14T16:39:06.947Z,52.47
2022-12-14T16:42:01.419Z,56.97
2022-12-14T16:44:31.647Z,58.87
2022-12-14T16:47:01.505Z,49.55
2022-12-14T16:49:32.506Z,53.75
2022-12-14T16:52:17.572Z,49.50
2022-12-14T16:57:47.763Z,54.50
2022-12-14T17:00:29.674Z,55.67
2022-12-14T17:03:25.869Z,48.45
2022-12-14T17:05:57.398Z,51.95
2022-12-14T17:08:24.508Z,46.03
2022-12-14T17:10:51.519Z,54.42
2022-12-14T17:13:18.988Z,47.38
2022-12-14T17:16:06.268Z,52.13
2022-12-14T17:18:38.638Z,50.83
2022-12-14T17:21:08.747Z,58.50
2022-12-14T17:23:40.319Z,57.67
2022-12-14T17:26:07.122Z,62.35
2022-12-14T17:28:34.917Z,69.55
2022-12-14T17:31:03.610Z,60.55
2022-12-14T17:33:32.007Z,69.75
2022-12-14T17:35:59.206Z,55.17
2022-12-14T17:38:26.285Z,66.93
2022-12-14T17:40:56.692Z,60.20
2022-12-14T17:43:27.974Z,54.30
2022-12-14T17:45:55.483Z,63.58
2022-12-14T17:48:22.427Z,61.15
2022-12-14T17:50:50.408Z,73.43
2022-12-14T17:53:30.195Z,68.85
2022-12-14T17:55:57.466Z,80.20
2022-12-14T17:58:24.463Z,78.03
2022-12-14T18:01:00.501Z,67.20
2022-12-14T18:03:31.088Z,77.38
2022-12-14T18:05:59.463Z,67.72
2022-12-14T18:08:26.975Z,66.60
2022-12-14T18:11:01.626Z,65.25
2022-12-14T18:13:31.907Z,59.95
2022-12-14T18:16:00.666Z,63.92
2022-12-14T18:18:29.639Z,63.72
2022-12-14T18:21:02.996Z,62.40
2022-12-14T18:23:31.721Z,64.70
2022-12-14T18:26:00.668Z,66.47
2022-12-14T18:28:27.529Z,59.33
2022-12-14T18:31:07.597Z,71.90
2022-12-14T18:33:35.473Z,63.40
2022-12-14T18:36:02.690Z,58.42
2022-12-14T18:38:32.537Z,58.15
2022-12-14T18:41:01.976Z,90.50
2022-12-14T18:43:30.470Z,88.82
2022-12-14T18:45:58.844Z,83.78
2022-12-14T18:48:25.952Z,129.60
2022-12-14T18:50:54.994Z,86.78
2022-12-14T18:53:23.973Z,78.75
2022-12-14T18:55:50.986Z,171.55
2022-12-14T18:58:27.155Z,188.18
2022-12-14T19:00:58.483Z,132.93
2022-12-14T19:03:27.089Z,111.50
2022-12-14T19:06:34.880Z,118.55
2022-12-14T19:08:52.031Z,66.13
2022-12-14T19:11:42.785Z,59.75
2022-12-14T19:14:10.330Z,60.90
2022-12-14T19:16:37.305Z,62.22
2022-12-14T19:19:04.181Z,57.55
2022-12-14T19:21:31.753Z,53.75
2022-12-14T19:23:59.919Z,51.95
2022-12-14T19:26:28.665Z,50.42
2022-12-14T19:28:56.364Z,49.25
2022-12-14T19:31:23.488Z,53.58
2022-12-14T19:33:50.449Z,53.42
2022-12-14T19:36:17.583Z,93.95
2022-12-14T19:38:45.008Z,68.78
2022-12-14T19:41:20.345Z,76.97
2022-12-14T19:43:48.445Z,86.43
2022-12-14T19:46:17.696Z,75.72
2022-12-14T19:48:45.261Z,71.32
2022-12-14T19:51:13.701Z,68.45
2022-12-14T19:53:43.020Z,70.60
2022-12-14T19:56:10.990Z,68.55
2022-12-14T19:58:39.907Z,56.08
2022-12-14T20:01:14.380Z,58.25
2022-12-14T20:06:10.222Z,56.65
2022-12-14T20:08:37.531Z,49.20
2022-12-14T20:11:12.250Z,51.83
2022-12-14T20:13:42.378Z,51.95
2022-12-14T20:16:19.269Z,50.08
2022-12-14T20:18:48.130Z,40.40
2022-12-14T20:21:22.214Z,45.33
2022-12-14T20:23:54.631Z,41.08
2022-12-14T20:26:23.880Z,48.38
2022-12-14T20:28:54.705Z,50.58
2022-12-14T20:31:23.047Z,38.85
2022-12-14T20:33:50.681Z,42.78
2022-12-14T20:36:19.366Z,40.90
2022-12-14T20:38:49.354Z,42.60
2022-12-14T20:41:17.746Z,44.30
2022-12-14T20:43:49.094Z,42.55
2022-12-14T20:46:39.226Z,52.20
2022-12-14T20:49:18.749Z,49.38
2022-12-14T20:51:49.627Z,52.38
2022-12-14T20:54:23.284Z,48.70
2022-12-14T20:56:51.325Z,46.27
2022-12-14T20:59:18.368Z,54.28
2022-12-14T21:01:51.866Z,51.28
2022-12-14T21:04:22.536Z,46.88
2022-12-14T21:06:49.594Z,50.22
2022-12-14T21:09:18.140Z,56.15
2022-12-14T21:12:08.239Z,49.33
2022-12-14T21:14:39.945Z,42.97
2022-12-14T21:17:07.208Z,45.95
2022-12-14T21:19:36.190Z,47.15
2022-12-14T21:22:06.007Z,44.40
2022-12-14T21:25:01.934Z,53.53
2022-12-14T21:27:28.457Z,59.80
2022-12-14T21:29:55.522Z,49.65
2022-12-14T21:32:22.943Z,59.05
2022-12-14T21:34:49.811Z,56.22
2022-12-14T21:37:16.934Z,53.58
2022-12-14T21:39:49.040Z,55.55
2022-12-14T21:42:20.814Z,58.45
2022-12-14T21:44:50.910Z,58.35
2022-12-14T21:47:28.250Z,50.42
2022-12-14T21:49:56.457Z,42.90
2022-12-14T21:52:27.216Z,47.08
2022-12-14T21:54:54.301Z,44.83
2022-12-14T21:57:42.958Z,53.35
2022-12-14T22:00:17.045Z,48.05
2022-12-14T22:02:44.510Z,41.20
2022-12-14T22:05:11.423Z,49.58
2022-12-14T22:07:38.258Z,44.50
2022-12-14T22:10:05.985Z,60.15
2022-12-14T22:12:32.825Z,64.32
2022-12-14T22:14:59.781Z,63.38
2022-12-14T22:17:26.972Z,51.22
2022-12-14T22:19:55.484Z,58.80
2022-12-14T22:22:23.247Z,52.67
2022-12-14T22:24:51.598Z,59.95
2022-12-14T22:27:19.569Z,60.53
2022-12-14T22:29:46.525Z,60.00
2022-12-14T22:32:13.517Z,56.10
2022-12-14T22:34:40.505Z,56.78
2022-12-14T22:37:07.382Z,55.65
2022-12-14T22:39:34.647Z,58.05
2022-12-14T22:42:01.426Z,61.75
2022-12-14T22:44:28.678Z,60.92
2022-12-14T22:46:55.594Z,63.70
2022-12-14T22:49:22.526Z,52.28
2022-12-14T22:51:50.715Z,52.92
2022-12-14T22:54:22.646Z,53.63
2022-12-14T22:57:03.513Z,46.65
2022-12-14T22:59:48.550Z,46.10
2022-12-14T23:02:15.862Z,46.33
2022-12-14T23:04:43.100Z,47.35
2022-12-14T23:07:10.684Z,43.80
2022-12-14T23:09:56.194Z,41.38
2022-12-14T23:12:41.482Z,44.00
2022-12-14T23:15:27.606Z,43.70
2022-12-14T23:18:19.493Z,42.47
2022-12-14T23:21:04.948Z,38.58
2022-12-14T23:23:50.077Z,38.67
2022-12-14T23:26:35.688Z,38.33
2022-12-14T23:29:20.918Z,33.22
2022-12-14T23:32:06.164Z,38.13
2022-12-14T23:34:51.620Z,36.47
2022-12-14T23:37:37.040Z,36.50
2022-12-14T23:40:23.923Z,37.30
2022-12-14T23:43:09.126Z,30.45
2022-12-14T23:45:54.373Z,39.28
2022-12-14T23:48:40.245Z,37.25
2022-12-14T23:51:25.543Z,31.63
2022-12-14T23:54:11.592Z,36.08
2022-12-14T23:56:56.994Z,37.25
2022-12-14T23:59:42.538Z,32.88
